Time;durP1;ratioP1;P1;durP2;ratioP2;P2;SDS_P1;SDS_P2;PMS_P1;PMS_P2;Temp;Humidity;BMP_temperature;BMP_pressure;BME280_temperature;BME280_humidity;BME280_pressure;Samples;Min_cycle;Max_cycle;Signal;HPM_P1;HPM_P2
2023/03/11 00:00:28;;;;;;;13.13;7.55;;;;;;;-0.33;100.00;99061.03;6092266;29;20048;-89
2023/03/11 00:03:29;;;;;;;12.82;7.60;;;;;;;-0.34;100.00;99061.16;6090760;29;20507;-88
2023/03/11 00:06:34;;;;;;;13.75;7.72;;;;;;;-0.38;100.00;99052.84;6091768;29;20542;-89
2023/03/11 00:09:36;;;;;;;10.98;6.68;;;;;;;-0.34;100.00;99059.41;6091887;29;20040;-89
2023/03/11 00:12:38;;;;;;;9.80;6.20;;;;;;;-0.30;100.00;99073.59;6074535;29;20059;-89
2023/03/11 00:15:45;;;;;;;11.40;6.53;;;;;;;-0.34;100.00;99078.94;6057775;29;20169;-89
2023/03/11 00:18:51;;;;;;;11.43;6.10;;;;;;;-0.34;100.00;99089.09;6089959;29;20044;-89
2023/03/11 00:21:54;;;;;;;10.77;6.72;;;;;;;-0.35;100.00;99097.63;6091027;29;20044;-88
2023/03/11 00:24:56;;;;;;;10.80;6.30;;;;;;;-0.35;100.00;99118.75;6084068;29;20044;-89
2023/03/11 00:28:00;;;;;;;9.48;6.07;;;;;;;-0.31;100.00;99117.69;6090644;29;20548;-87
2023/03/11 00:31:02;;;;;;;12.10;6.10;;;;;;;-0.33;100.00;99132.22;6096546;29;20047;-87
2023/03/11 00:34:04;;;;;;;9.32;5.78;;;;;;;-0.31;100.00;99125.31;6085968;29;20051;-87
2023/03/11 00:37:06;;;;;;;8.02;5.07;;;;;;;-0.34;100.00;99147.56;6080214;29;20086;-88
2023/03/11 00:40:17;;;;;;;8.90;5.35;;;;;;;-0.33;100.00;99146.66;6096284;29;20063;-87
2023/03/11 00:43:19;;;;;;;7.75;5.18;;;;;;;-0.32;100.00;99145.78;6093562;29;20470;-87
2023/03/11 00:46:21;;;;;;;9.00;5.00;;;;;;;-0.35;100.00;99149.28;6087031;29;20047;-86
2023/03/11 00:49:23;;;;;;;10.05;5.40;;;;;;;-0.32;100.00;99153.41;6090889;29;20418;-87
2023/03/11 00:52:26;;;;;;;8.73;4.82;;;;;;;-0.32;100.00;99172.00;6095899;29;20078;-87
2023/03/11 00:55:33;;;;;;;7.53;4.45;;;;;;;-0.34;100.00;99171.25;6095115;29;20145;-87
2023/03/11 00:58:40;;;;;;;5.80;4.03;;;;;;;-0.33;100.00;99172.09;6081710;29;20523;-87
2023/03/11 01:01:42;;;;;;;5.95;3.35;;;;;;;-0.35;100.00;99184.06;6093839;29;20052;-87
2023/03/11 01:04:44;;;;;;;4.82;2.83;;;;;;;-0.36;100.00;99221.38;6095550;29;20475;-87
2023/03/11 01:07:47;;;;;;;5.25;2.67;;;;;;;-0.36;100.00;99187.50;6095299;29;20055;-87
2023/03/11 01:10:49;;;;;;;4.07;2.80;;;;;;;-0.44;100.00;99186.22;6095877;29;20219;-87
2023/03/11 01:13:52;;;;;;;6.50;3.15;;;;;;;-0.44;100.00;99193.03;6093636;29;20080;-87
2023/03/11 01:16:55;;;;;;;5.68;3.47;;;;;;;-0.35;100.00;99202.66;6077889;29;20052;-87
2023/03/11 01:19:57;;;;;;;4.43;2.92;;;;;;;-0.36;100.00;99208.66;6077754;29;20040;-88
2023/03/11 01:22:59;;;;;;;6.07;3.67;;;;;;;-0.38;100.00;99205.38;6089064;29;20064;-88
2023/03/11 01:26:02;;;;;;;5.15;2.78;;;;;;;-0.33;100.00;99212.75;6095202;29;20599;-89
2023/03/11 01:29:04;;;;;;;4.55;3.13;;;;;;;-0.36;100.00;99223.91;6109490;29;20601;-90
2023/03/11 01:32:06;;;;;;;5.38;3.42;;;;;;;-0.40;100.00;99226.69;6076923;29;20526;-90
2023/03/11 01:35:12;;;;;;;5.97;3.47;;;;;;;-0.36;100.00;99225.66;6094863;29;20050;-91
2023/03/11 01:38:17;;;;;;;7.28;3.67;;;;;;;-0.40;100.00;99242.78;6093773;29;20067;-91
2023/03/11 01:41:24;;;;;;;5.50;3.15;;;;;;;-0.37;100.00;99236.69;6062214;29;20059;-91
2023/03/11 01:44:26;;;;;;;5.82;3.95;;;;;;;-0.36;100.00;99233.28;6091080;29;20051;-92
2023/03/11 01:47:38;;;;;;;6.32;3.83;;;;;;;-0.37;100.00;99245.16;6088129;29;20523;-92
2023/03/11 01:50:45;;;;;;;6.53;3.88;;;;;;;-0.36;100.00;99262.03;6088685;29;20048;-92
2023/03/11 01:53:47;;;;;;;7.38;3.83;;;;;;;-0.32;100.00;99263.53;6087951;29;20049;-92
2023/03/11 01:56:50;;;;;;;6.40;4.03;;;;;;;-0.33;100.00;99263.59;6086567;29;20056;-92
2023/03/11 01:59:56;;;;;;;5.07;3.50;;;;;;;-0.39;100.00;99262.22;6095178;29;20522;-93
2023/03/11 02:03:01;;;;;;;4.00;2.80;;;;;;;-0.35;100.00;99273.84;6091126;29;20059;-93
2023/03/11 02:06:08;;;;;;;5.63;3.38;;;;;;;-0.35;100.00;99285.75;6091575;29;20547;-92
2023/03/11 02:09:11;;;;;;;7.72;3.17;;;;;;;-0.35;100.00;99286.56;6080667;29;20062;-92
2023/03/11 02:12:14;;;;;;;5.55;3.28;;;;;;;-0.37;100.00;99282.44;6101405;29;20056;-92
2023/03/11 02:15:17;;;;;;;7.03;3.60;;;;;;;-0.43;100.00;99293.78;6086279;29;20040;-92
2023/03/11 02:18:21;;;;;;;5.22;3.22;;;;;;;-0.42;100.00;99297.97;6094354;29;20071;-92
2023/03/11 02:21:25;;;;;;;7.63;3.60;;;;;;;-0.38;100.00;99299.44;6071143;29;20415;-92
2023/03/11 02:24:49;;;;;;;5.53;3.70;;;;;;;-0.39;100.00;99294.44;6076827;29;20052;-92
2023/03/11 02:27:53;;;;;;;6.95;3.63;;;;;;;-0.38;100.00;99304.53;6072166;29;20127;-93
2023/03/11 02:30:58;;;;;;;6.90;3.35;;;;;;;-0.41;100.00;99302.16;6089870;29;20319;-93
2023/03/11 02:34:02;;;;;;;5.40;3.20;;;;;;;-0.41;100.00;99332.66;6094907;29;20051;-92
2023/03/11 02:37:15;;;;;;;5.80;3.22;;;;;;;-0.40;100.00;99323.31;6093240;29;20048;-92
2023/03/11 02:40:29;;;;;;;5.22;3.33;;;;;;;-0.46;100.00;99322.72;6093398;29;20150;-91
2023/03/11 02:43:42;;;;;;;5.90;2.92;;;;;;;-0.45;100.00;99326.06;6089053;29;20052;-90
2023/03/11 02:46:46;;;;;;;4.13;3.00;;;;;;;-0.49;100.00;99329.72;6076641;29;20044;-90
2023/03/11 02:49:48;;;;;;;4.97;2.80;;;;;;;-0.44;100.00;99322.66;6093268;29;20051;-90
2023/03/11 02:52:50;;;;;;;4.68;3.00;;;;;;;-0.44;100.00;99332.81;6093907;29;20176;-89
2023/03/11 02:55:52;;;;;;;5.70;3.08;;;;;;;-0.55;100.00;99333.38;6092975;29;20088;-89
2023/03/11 02:58:54;;;;;;;5.22;2.83;;;;;;;-0.51;100.00;99342.47;6092231;29;20075;-88
2023/03/11 03:01:56;;;;;;;3.90;2.97;;;;;;;-0.51;100.00;99339.94;6091168;29;20513;-88
2023/03/11 03:04:57;;;;;;;5.65;2.75;;;;;;;-0.62;100.00;99349.00;6080163;29;20040;-88
2023/03/11 03:08:01;;;;;;;5.88;2.30;;;;;;;-0.51;100.00;99351.84;6092493;29;20040;-88
2023/03/11 03:11:04;;;;;;;4.05;2.60;;;;;;;-0.62;100.00;99356.63;6087169;29;20141;-88
2023/03/11 03:14:05;;;;;;;4.82;2.30;;;;;;;-0.62;100.00;99359.19;6091975;29;20047;-88
2023/03/11 03:17:07;;;;;;;4.97;2.60;;;;;;;-0.64;100.00;99366.09;6093006;29;20040;-88
2023/03/11 03:20:11;;;;;;;4.28;2.67;;;;;;;-0.59;100.00;99381.91;6074350;29;20491;-87
2023/03/11 03:23:17;;;;;;;7.95;2.53;;;;;;;-0.67;100.00;99367.06;6082438;29;20084;-87
2023/03/11 03:26:19;;;;;;;6.88;2.65;;;;;;;-0.76;100.00;99378.50;6091190;29;20423;-88
2023/03/11 03:29:23;;;;;;;10.05;3.65;;;;;;;-0.74;100.00;99384.34;6080356;29;20048;-87
2023/03/11 03:32:25;;;;;;;4.93;3.33;;;;;;;-0.72;100.00;99390.16;6083131;29;20063;-88
2023/03/11 03:35:27;;;;;;;4.13;2.78;;;;;;;-0.70;100.00;99395.97;6092107;29;20052;-88
2023/03/11 03:38:35;;;;;;;5.65;3.00;;;;;;;-0.68;100.00;99406.88;6082317;29;20060;-88
2023/03/11 03:41:37;;;;;;;7.13;2.60;;;;;;;-0.63;100.00;99419.34;6096471;29;20456;-87
2023/03/11 03:44:41;;;;;;;4.80;2.70;;;;;;;-0.57;100.00;99418.22;6087775;29;20106;-87
2023/03/11 03:47:46;;;;;;;5.55;2.72;;;;;;;-0.55;100.00;99436.75;6077572;29;20139;-87
2023/03/11 03:50:48;;;;;;;3.67;2.15;;;;;;;-0.65;100.00;99423.69;6075851;29;20057;-87
2023/03/11 03:53:51;;;;;;;6.13;2.78;;;;;;;-0.68;100.00;99434.00;6085593;29;20179;-86
2023/03/11 03:56:52;;;;;;;6.25;2.78;;;;;;;-0.72;100.00;99437.59;6090905;29;20054;-86
2023/03/11 03:59:56;;;;;;;4.40;2.20;;;;;;;-0.71;100.00;99447.69;6088822;29;20043;-86
2023/03/11 04:02:59;;;;;;;5.35;2.22;;;;;;;-0.81;100.00;99443.16;6090872;29;20177;-86
2023/03/11 04:06:19;;;;;;;7.47;2.38;;;;;;;-0.88;100.00;99448.53;6090252;29;20423;-85
2023/03/11 04:09:26;;;;;;;6.20;2.58;;;;;;;-0.92;100.00;99448.75;6074022;29;20053;-85
2023/03/11 04:12:28;;;;;;;6.20;2.35;;;;;;;-0.81;100.00;99459.22;6064357;29;20139;-85
2023/03/11 04:15:30;;;;;;;4.82;2.53;;;;;;;-0.81;100.00;99461.75;6089879;29;20044;-85
2023/03/11 04:18:33;;;;;;;8.68;2.55;;;;;;;-0.88;100.00;99456.16;6081996;29;20044;-85
2023/03/11 04:21:36;;;;;;;5.30;2.55;;;;;;;-0.96;100.00;99472.66;6091676;29;20048;-85
2023/03/11 04:24:38;;;;;;;3.70;2.30;;;;;;;-0.94;100.00;99465.81;6085427;29;20139;-84
2023/03/11 04:27:48;;;;;;;9.23;2.60;;;;;;;-0.88;100.00;99473.09;6090255;29;20075;-84
2023/03/11 04:30:51;;;;;;;5.43;2.08;;;;;;;-0.99;100.00;99466.03;6088619;29;20106;-84
2023/03/11 04:33:53;;;;;;;5.28;1.83;;;;;;;-0.96;100.00;99477.75;6091835;29;20052;-84
2023/03/11 04:36:56;;;;;;;6.20;1.80;;;;;;;-0.95;100.00;99471.75;6091006;29;20633;-84
2023/03/11 04:40:05;;;;;;;6.80;2.42;;;;;;;-0.99;100.00;99473.63;6089299;29;20044;-84
2023/03/11 04:43:08;;;;;;;5.60;2.95;;;;;;;-1.04;100.00;99475.59;6070334;29;20456;-84
2023/03/11 04:46:10;;;;;;;4.30;2.13;;;;;;;-1.04;100.00;99480.66;6091693;29;20047;-83
2023/03/11 04:49:13;;;;;;;8.50;2.30;;;;;;;-1.17;100.00;99482.13;6089551;29;20179;-83
2023/03/11 04:52:16;;;;;;;7.30;2.85;;;;;;;-1.15;100.00;99500.66;6088139;29;20493;-83
2023/03/11 04:55:17;;;;;;;4.70;2.28;;;;;;;-1.25;100.00;99509.59;6091783;29;21138;-83
2023/03/11 04:58:20;;;;;;;4.63;2.17;;;;;;;-1.14;100.00;99510.75;6090887;29;20131;-83
2023/03/11 05:01:22;;;;;;;6.03;2.00;;;;;;;-1.08;100.00;99518.06;6078968;29;20107;-83
2023/03/11 05:04:24;;;;;;;5.25;2.00;;;;;;;-1.05;100.00;99513.75;6080939;29;20507;-83
2023/03/11 05:07:26;;;;;;;4.53;1.90;;;;;;;-0.96;100.00;99536.97;6071882;29;20060;-83
2023/03/11 05:10:29;;;;;;;3.67;1.90;;;;;;;-0.98;100.00;99527.78;6089123;29;20641;-83
2023/03/11 05:13:35;;;;;;;4.53;2.15;;;;;;;-0.99;100.00;99533.78;6093125;29;20067;-83
2023/03/11 05:16:40;;;;;;;7.15;2.00;;;;;;;-0.91;100.00;99546.94;6093056;29;20032;-83
2023/03/11 05:19:44;;;;;;;4.35;2.08;;;;;;;-0.97;100.00;99549.75;6082197;29;20504;-83
2023/03/11 05:22:53;;;;;;;4.45;2.10;;;;;;;-0.98;100.00;99550.66;6084380;29;20075;-83
2023/03/11 05:25:55;;;;;;;7.53;2.00;;;;;;;-0.98;100.00;99555.72;6081293;29;20139;-83
2023/03/11 05:28:57;;;;;;;4.68;2.08;;;;;;;-0.96;100.00;99554.75;6094637;29;20376;-82
2023/03/11 05:32:00;;;;;;;5.90;2.28;;;;;;;-0.91;100.00;99559.63;6096248;29;20509;-83
2023/03/11 05:35:02;;;;;;;3.17;1.98;;;;;;;-0.94;100.00;99567.41;6083005;29;20163;-83
2023/03/11 05:38:06;;;;;;;7.70;2.17;;;;;;;-0.92;100.00;99565.59;6093127;29;20080;-83
2023/03/11 05:41:09;;;;;;;6.45;1.60;;;;;;;-0.98;100.00;99564.16;6078398;29;20055;-83
2023/03/11 05:44:11;;;;;;;4.60;1.67;;;;;;;-0.96;100.00;99567.47;6093301;29;20098;-83
2023/03/11 05:47:16;;;;;;;5.78;2.30;;;;;;;-0.97;100.00;99577.69;6093168;29;20052;-83
2023/03/11 05:50:19;;;;;;;4.95;1.70;;;;;;;-0.97;100.00;99582.75;6092165;29;20052;-83
2023/03/11 05:53:24;;;;;;;3.85;1.60;;;;;;;-0.95;100.00;99583.50;6094214;29;20052;-83
2023/03/11 05:56:26;;;;;;;3.40;1.90;;;;;;;-0.90;100.00;99586.66;6065243;29;20059;-84
2023/03/11 05:59:31;;;;;;;9.48;1.85;;;;;;;-0.87;100.00;99584.81;6092483;29;20082;-85
2023/03/11 06:02:40;;;;;;;3.55;1.48;;;;;;;-0.81;100.00;99596.41;6092390;29;20654;-85
2023/03/11 06:05:48;;;;;;;2.40;1.50;;;;;;;-0.77;100.00;99595.38;6093828;29;20040;-84
2023/03/11 06:08:53;;;;;;;5.80;1.83;;;;;;;-0.76;100.00;99602.09;6092173;29;20099;-85
2023/03/11 06:11:57;;;;;;;5.80;1.65;;;;;;;-0.83;100.00;99612.59;6097184;29;20144;-84
2023/03/11 06:15:07;;;;;;;2.72;1.30;;;;;;;-0.92;100.00;99604.53;6081212;29;20052;-84
2023/03/11 06:18:13;;;;;;;3.45;1.75;;;;;;;-0.91;100.00;99610.44;6080303;29;20056;-85
2023/03/11 06:21:21;;;;;;;3.42;1.35;;;;;;;-0.85;100.00;99622.00;6093005;29;20048;-85
2023/03/11 06:24:23;;;;;;;3.08;1.77;;;;;;;-0.89;100.00;99628.97;6092240;29;20048;-84
2023/03/11 06:27:25;;;;;;;3.13;1.10;;;;;;;-0.87;100.00;99630.53;6080000;29;20088;-84
2023/03/11 06:30:27;;;;;;;5.68;1.50;;;;;;;-0.87;100.00;99635.63;6084056;29;20553;-84
2023/03/11 06:33:43;;;;;;;2.35;1.38;;;;;;;-0.98;100.00;99642.91;6094188;29;20464;-84
2023/03/11 06:36:45;;;;;;;5.75;1.25;;;;;;;-0.92;100.00;99636.72;6092033;29;20052;-84
2023/03/11 06:39:52;;;;;;;2.58;1.00;;;;;;;-0.85;100.00;99655.84;6094597;29;20044;-84
2023/03/11 06:42:56;;;;;;;3.65;1.38;;;;;;;-0.73;100.00;99662.91;6088291;29;20051;-84
2023/03/11 06:46:01;;;;;;;4.63;1.38;;;;;;;-0.66;100.00;99658.38;6091502;29;20122;-84
2023/03/11 06:49:03;;;;;;;4.35;1.40;;;;;;;-0.67;100.00;99672.81;6092386;29;20040;-84
2023/03/11 06:52:07;;;;;;;2.08;1.58;;;;;;;-0.64;100.00;99673.56;6088012;29;20040;-84
2023/03/11 06:55:08;;;;;;;5.40;1.17;;;;;;;-0.68;100.00;99676.22;6074864;29;20059;-84
2023/03/11 06:58:11;;;;;;;7.65;1.60;;;;;;;-0.61;100.00;99681.03;6090957;29;20111;-84
2023/03/11 07:01:16;;;;;;;5.10;1.58;;;;;;;-0.62;100.00;99689.53;6091863;29;20218;-84
2023/03/11 07:04:18;;;;;;;5.68;1.35;;;;;;;-0.60;100.00;99695.38;6091470;29;20067;-84
2023/03/11 07:07:22;;;;;;;4.13;1.70;;;;;;;-0.61;100.00;99702.19;6084672;29;20511;-84
2023/03/11 07:10:24;;;;;;;4.05;1.65;;;;;;;-0.51;100.00;99698.31;6062791;29;20095;-85
2023/03/11 07:13:25;;;;;;;3.95;1.30;;;;;;;-0.45;100.00;99713.31;6096484;29;20041;-85
2023/03/11 07:16:29;;;;;;;6.82;2.10;;;;;;;-0.56;100.00;99712.97;6091461;29;20052;-85
2023/03/11 07:19:39;;;;;;;5.90;1.63;;;;;;;-0.51;100.00;99722.94;6090989;29;20227;-85
2023/03/11 07:22:41;;;;;;;3.83;1.23;;;;;;;-0.49;100.00;99723.69;6093798;29;20040;-85
2023/03/11 07:25:51;;;;;;;7.15;1.70;;;;;;;-0.56;100.00;99732.47;6081045;29;20462;-85
2023/03/11 07:28:54;;;;;;;3.30;1.55;;;;;;;-0.56;100.00;99747.72;6092004;29;20554;-85
2023/03/11 07:31:56;;;;;;;1.92;1.25;;;;;;;-0.73;100.00;99741.69;6092321;29;20049;-85
2023/03/11 07:34:58;;;;;;;4.20;1.30;;;;;;;-0.86;100.00;99753.31;6092245;29;20044;-84
2023/03/11 07:38:00;;;;;;;4.47;1.98;;;;;;;-0.88;100.00;99752.53;6091445;29;20096;-83
2023/03/11 07:41:02;;;;;;;5.18;1.50;;;;;;;-1.04;100.00;99767.63;6090491;29;20036;-83
2023/03/11 07:44:04;;;;;;;6.13;1.33;;;;;;;-0.95;100.00;99764.66;6067702;29;20040;-82
2023/03/11 07:47:06;;;;;;;6.50;1.60;;;;;;;-0.93;100.00;99769.69;6090930;29;20052;-82
2023/03/11 07:50:10;;;;;;;3.28;1.40;;;;;;;-0.98;100.00;99779.22;6065441;29;20052;-82
2023/03/11 07:53:12;;;;;;;6.30;1.33;;;;;;;-1.01;100.00;99781.91;6092203;29;20040;-82
2023/03/11 07:56:15;;;;;;;6.18;1.50;;;;;;;-1.02;100.00;99792.94;6098069;29;20080;-82
2023/03/11 07:59:17;;;;;;;4.88;1.40;;;;;;;-1.09;100.00;99800.84;6088688;29;20080;-82
2023/03/11 08:02:18;;;;;;;4.28;1.65;;;;;;;-1.09;100.00;99802.56;6091222;29;20866;-82
2023/03/11 08:05:21;;;;;;;2.67;1.30;;;;;;;-1.01;100.00;99817.47;6090807;29;20052;-82
2023/03/11 08:08:22;;;;;;;4.30;1.30;;;;;;;-0.96;100.00;99816.38;6091184;29;20630;-82
2023/03/11 08:11:25;;;;;;;5.57;1.25;;;;;;;-0.98;100.00;99822.41;6095856;29;20174;-82
2023/03/11 08:14:27;;;;;;;4.03;1.50;;;;;;;-1.00;100.00;99826.72;6090713;29;20051;-82
2023/03/11 08:17:28;;;;;;;2.30;1.65;;;;;;;-0.90;100.00;99830.53;6092781;29;20048;-82
2023/03/11 08:20:31;;;;;;;4.82;1.50;;;;;;;-0.94;100.00;99832.38;6091909;29;20040;-82
2023/03/11 08:23:33;;;;;;;3.92;1.70;;;;;;;-0.84;100.00;99832.81;6091951;29;20051;-82
2023/03/11 08:26:35;;;;;;;3.85;1.60;;;;;;;-0.81;100.00;99847.91;6061820;29;20060;-82
2023/03/11 08:29:37;;;;;;;4.18;1.50;;;;;;;-0.82;100.00;99850.50;6092227;29;20075;-82
2023/03/11 08:32:39;;;;;;;1.95;1.17;;;;;;;-0.80;100.00;99851.28;6092221;29;20051;-82
2023/03/11 08:35:41;;;;;;;7.57;1.70;;;;;;;-0.71;100.00;99854.25;6091302;29;20135;-82
2023/03/11 08:38:44;;;;;;;5.05;1.63;;;;;;;-0.63;100.00;99873.44;6084810;29;20099;-82
2023/03/11 08:41:46;;;;;;;4.00;1.48;;;;;;;-0.58;100.00;99874.88;6089657;29;20554;-82
2023/03/11 08:44:48;;;;;;;5.50;1.60;;;;;;;-0.43;100.00;99869.09;6090947;29;20144;-84
2023/03/11 08:47:50;;;;;;;1.77;1.20;;;;;;;-0.24;100.00;99878.47;6089480;29;20044;-88
2023/03/11 08:50:53;;;;;;;2.78;1.40;;;;;;;-0.29;100.00;99885.50;6094243;29;20051;-89
2023/03/11 08:53:55;;;;;;;7.15;2.03;;;;;;;-0.32;100.00;99885.63;6091624;29;20492;-89
2023/03/11 08:57:01;;;;;;;5.07;1.40;;;;;;;-0.27;100.00;99893.88;6094470;29;20040;-89
2023/03/11 09:00:06;;;;;;;3.55;1.08;;;;;;;-0.35;100.00;99895.91;6087674;29;20079;-88
2023/03/11 09:03:08;;;;;;;1.95;1.20;;;;;;;-0.36;100.00;99895.09;6095087;29;20044;-86
2023/03/11 09:06:15;;;;;;;7.25;1.80;;;;;;;-0.37;100.00;99901.09;6095738;29;20126;-85
2023/03/11 09:09:19;;;;;;;4.57;1.77;;;;;;;-0.37;100.00;99903.63;6094195;29;20056;-84
2023/03/11 09:12:21;;;;;;;2.53;1.48;;;;;;;-0.40;100.00;99913.91;6097619;29;20048;-84
2023/03/11 09:15:22;;;;;;;3.38;1.40;;;;;;;-0.39;100.00;99909.69;6094700;29;20048;-84
2023/03/11 09:18:24;;;;;;;2.72;1.60;;;;;;;-0.31;100.00;99910.97;6094128;29;20048;-84
2023/03/11 09:21:26;;;;;;;4.25;1.63;;;;;;;-0.37;100.00;99910.41;6092023;29;20046;-85
2023/03/11 09:24:29;;;;;;;4.25;1.73;;;;;;;-0.38;100.00;99917.22;6095265;29;20056;-85
2023/03/11 09:27:31;;;;;;;3.70;1.50;;;;;;;-0.38;100.00;99918.94;6095896;29;20102;-85
2023/03/11 09:30:33;;;;;;;4.47;1.10;;;;;;;-0.40;100.00;99934.25;6090017;29;20067;-86
2023/03/11 09:33:37;;;;;;;6.90;1.55;;;;;;;-0.40;100.00;99926.63;6095276;29;20614;-86
2023/03/11 09:36:44;;;;;;;7.07;1.95;;;;;;;-0.37;100.00;99930.75;6095439;29;20119;-86
2023/03/11 09:39:46;;;;;;;3.70;1.30;;;;;;;-0.40;100.00;99933.44;6095116;29;20044;-85
2023/03/11 09:43:04;;;;;;;4.60;1.40;;;;;;;-0.43;100.00;99944.56;6092541;29;20040;-85
2023/03/11 09:46:43;;;;;;;3.65;1.52;;;;;;;-0.45;100.00;99947.19;6091652;29;20083;-85
2023/03/11 09:50:22;;;;;;;3.20;1.55;;;;;;;-0.42;100.00;99956.41;6092716;29;20048;-85
2023/03/11 09:53:41;;;;;;;3.70;1.45;;;;;;;-0.50;100.00;99953.34;6090898;29;20405;-85
2023/03/11 09:56:43;;;;;;;4.50;2.17;;;;;;;-0.54;100.00;99954.38;6093560;29;20044;-85
2023/03/11 09:59:46;;;;;;;3.65;1.40;;;;;;;-0.50;100.00;99955.88;6094191;29;20132;-85
2023/03/11 10:02:49;;;;;;;6.25;1.88;;;;;;;-0.49;100.00;99944.84;6092164;29;20574;-85
2023/03/11 10:05:54;;;;;;;5.28;1.80;;;;;;;-0.52;100.00;99948.34;6091387;29;20040;-86
2023/03/11 10:09:05;;;;;;;5.70;1.40;;;;;;;-0.52;100.00;99958.50;6090923;29;20385;-86
2023/03/11 10:12:19;;;;;;;;;;;;;;;-0.34;100.00;99961.97;6095339;29;20051;-86
2023/03/11 10:15:34;;;;;;;2.85;1.75;;;;;;;-0.35;100.00;99957.75;6093482;29;19927;-87
2023/03/11 10:18:49;;;;;;;4.55;1.67;;;;;;;-0.28;100.00;99973.59;6093896;29;20152;-88
2023/03/11 10:22:13;;;;;;;2.55;1.73;;;;;;;-0.34;100.00;99968.78;6074710;29;20442;-88
2023/03/11 10:25:40;;;;;;;2.85;1.40;;;;;;;-0.26;100.00;99967.53;6091441;29;20075;-88
2023/03/11 10:28:52;;;;;;;3.83;1.33;;;;;;;-0.32;100.00;99967.81;6091770;29;20556;-89
2023/03/11 10:32:16;;;;;;;6.55;2.10;;;;;;;-0.36;100.00;99973.09;6091062;29;20071;-88
2023/03/11 10:35:40;;;;;;;3.63;2.10;;;;;;;-0.33;100.00;99973.78;6087568;29;20498;-88
2023/03/11 10:38:48;;;;;;;5.57;1.85;;;;;;;-0.17;100.00;99968.03;6091066;29;20538;-89
2023/03/11 10:42:03;;;;;;;8.60;1.98;;;;;;;-0.16;100.00;99978.16;6091021;29;20047;-89
2023/03/11 10:45:12;;;;;;;3.97;2.30;;;;;;;-0.15;100.00;99971.34;6084255;29;20051;-89
2023/03/11 10:48:16;;;;;;;3.53;1.70;;;;;;;-0.06;100.00;99981.94;6091676;29;20360;-89
2023/03/11 10:51:25;;;;;;;2.75;2.05;;;;;;;0.01;100.00;99979.13;6092097;29;20048;-88
2023/03/11 10:54:44;;;;;;;2.97;1.80;;;;;;;-0.09;100.00;99971.09;6090985;29;20470;-88
2023/03/11 10:57:46;;;;;;;3.17;1.58;;;;;;;-0.04;100.00;99977.63;6079228;29;20047;-87
2023/03/11 11:01:12;;;;;;;5.38;2.00;;;;;;;-0.04;100.00;99987.78;6088822;29;20199;-87
2023/03/11 11:04:26;;;;;;;4.30;2.10;;;;;;;-0.10;100.00;99984.69;6092083;29;20040;-85
2023/03/11 11:07:34;;;;;;;6.47;2.38;;;;;;;-0.02;100.00;99992.81;6090991;29;20040;-86
2023/03/11 11:10:36;;;;;;;5.40;1.88;;;;;;;0.00;100.00;99993.59;6091292;29;20050;-85
2023/03/11 11:13:38;;;;;;;4.35;1.88;;;;;;;0.01;100.00;99995.22;6079531;29;20032;-85
2023/03/11 11:16:41;;;;;;;3.40;2.05;;;;;;;0.14;100.00;99996.31;6091148;29;20156;-84
2023/03/11 11:19:47;;;;;;;3.53;1.73;;;;;;;0.11;100.00;100001.56;6091103;29;20458;-85
2023/03/11 11:22:55;;;;;;;8.07;1.80;;;;;;;0.20;100.00;99996.06;6080063;29;20052;-86
2023/03/11 11:26:04;;;;;;;4.20;1.60;;;;;;;0.15;100.00;100002.22;6084842;29;20048;-86
2023/03/11 11:29:13;;;;;;;5.03;2.00;;;;;;;0.23;100.00;99995.09;6092188;29;20048;-87
2023/03/11 11:32:24;;;;;;;5.15;2.00;;;;;;;0.25;100.00;100006.03;6090427;29;20555;-88
2023/03/11 11:35:26;;;;;;;5.47;1.67;;;;;;;0.35;100.00;100001.38;6092614;29;20048;-89
2023/03/11 11:38:30;;;;;;;2.88;1.20;;;;;;;0.35;100.00;100009.81;6090577;29;20102;-89
2023/03/11 11:41:35;;;;;;;3.90;1.63;;;;;;;0.46;100.00;100006.78;6091974;29;20512;-90
2023/03/11 11:44:37;;;;;;;5.85;1.58;;;;;;;0.61;100.00;100000.97;6090719;29;20615;-92
2023/03/11 11:47:45;;;;;;;5.00;1.60;;;;;;;0.60;100.00;100006.97;6090124;29;20047;-92
2023/03/11 11:50:51;;;;;;;3.78;1.45;;;;;;;0.67;100.00;99999.88;6090165;29;20047;-93
2023/03/11 11:54:27;;;;;;;2.90;1.52;;;;;;;0.73;100.00;100011.50;6090665;29;20047;-93
2023/03/11 11:57:31;;;;;;;2.33;1.77;;;;;;;0.76;100.00;100003.72;6091424;29;20040;-93
2023/03/11 12:00:51;;;;;;;6.53;1.52;;;;;;;0.81;100.00;99999.22;6088627;29;20486;-93
2023/03/11 12:04:03;;;;;;;2.83;1.35;;;;;;;0.85;100.00;100005.84;6091089;29;20125;-93
2023/03/11 12:07:04;;;;;;;3.90;1.52;;;;;;;0.93;100.00;100008.03;6091710;29;20051;-93
2023/03/11 12:10:45;;;;;;;5.15;1.58;;;;;;;0.89;100.00;100009.06;6090872;29;20053;-92
2023/03/11 12:14:03;;;;;;;3.67;1.75;;;;;;;0.89;100.00;100011.59;6090343;29;20505;-90
2023/03/11 12:17:07;;;;;;;7.72;1.95;;;;;;;0.95;100.00;100008.78;6090729;29;20052;-88
2023/03/11 12:20:26;;;;;;;5.32;1.70;;;;;;;0.97;100.00;100012.06;6090593;29;20054;-87
2023/03/11 12:23:39;;;;;;;2.83;1.33;;;;;;;1.01;100.00;100011.84;6088651;29;20050;-87
2023/03/11 12:26:45;;;;;;;2.65;1.75;;;;;;;1.04;100.00;100004.06;6094986;29;20078;-87
2023/03/11 12:30:01;;;;;;;3.30;1.45;;;;;;;1.08;100.00;100003.00;6078205;29;20067;-87
2023/03/11 12:33:31;;;;;;;2.72;1.52;;;;;;;1.07;100.00;100003.91;6095205;29;20052;-86
2023/03/11 12:36:42;;;;;;;4.90;2.13;;;;;;;1.11;100.00;99998.66;6094941;29;20533;-86
2023/03/11 12:39:44;;;;;;;2.13;1.30;;;;;;;1.17;100.00;99996.66;6093030;29;20095;-85
2023/03/11 12:42:46;;;;;;;3.50;1.50;;;;;;;1.30;100.00;100004.53;6094740;29;20056;-85
2023/03/11 12:45:50;;;;;;;5.15;1.98;;;;;;;1.34;100.00;100010.28;6106658;29;20535;-85
2023/03/11 12:49:12;;;;;;;3.45;1.60;;;;;;;1.24;100.00;100010.75;6093960;29;20043;-85
2023/03/11 12:52:23;;;;;;;1.88;1.20;;;;;;;1.31;100.00;100013.00;6095608;29;20048;-85
2023/03/11 12:55:30;;;;;;;;;;;;;;;1.33;100.00;100009.47;6095931;29;20086;-84
2023/03/11 12:59:08;;;;;;;4.00;1.70;;;;;;;1.33;100.00;100012.03;6094154;29;19927;-84
2023/03/11 13:02:47;;;;;;;4.00;1.38;;;;;;;1.33;100.00;100008.66;6069942;29;20144;-84
2023/03/11 13:05:49;;;;;;;3.05;1.45;;;;;;;1.43;100.00;100014.94;6090611;29;20603;-84
2023/03/11 13:08:54;;;;;;;2.60;1.50;;;;;;;1.53;100.00;100016.13;6069915;29;20212;-84
2023/03/11 13:11:56;;;;;;;6.18;1.20;;;;;;;1.61;100.00;100018.31;6075575;29;20644;-84
2023/03/11 13:15:16;;;;;;;4.57;1.30;;;;;;;1.72;100.00;100018.59;6074139;29;20166;-85
2023/03/11 13:18:26;;;;;;;6.10;1.33;;;;;;;1.73;100.00;100023.59;6083621;29;20057;-85
2023/03/11 13:21:31;;;;;;;2.38;1.40;;;;;;;1.88;100.00;100029.66;6078622;29;20196;-85
2023/03/11 13:24:33;;;;;;;5.47;1.20;;;;;;;1.92;100.00;100028.63;6074849;29;20044;-85
2023/03/11 13:27:43;;;;;;;3.17;1.00;;;;;;;1.95;100.00;100025.06;6071554;29;20071;-84
2023/03/11 13:30:57;;;;;;;4.00;1.08;;;;;;;1.99;100.00;100030.84;6072324;29;20079;-85
2023/03/11 13:34:33;;;;;;;4.03;1.55;;;;;;;2.02;100.00;100038.34;6077533;29;20183;-89
2023/03/11 13:37:43;;;;;;;1.85;1.02;;;;;;;2.06;100.00;100032.19;6058407;29;20105;-89
2023/03/11 13:40:45;;;;;;;5.25;1.20;;;;;;;2.00;100.00;100040.16;6088877;29;20048;-90
2023/03/11 13:43:50;;;;;;;4.50;1.48;;;;;;;2.07;100.00;100038.94;6089056;29;20531;-89
2023/03/11 13:47:01;;;;;;;1.40;0.93;;;;;;;2.12;100.00;100045.47;6094403;29;20091;-88
2023/03/11 13:50:23;;;;;;;4.65;1.98;;;;;;;2.11;100.00;100048.94;6087121;29;20514;-88
2023/03/11 13:53:31;;;;;;;4.95;1.20;;;;;;;2.11;100.00;100043.81;6072058;29;20482;-89
2023/03/11 13:56:42;;;;;;;3.45;1.40;;;;;;;2.14;100.00;100036.00;6093950;29;20055;-89
2023/03/11 13:59:50;;;;;;;3.35;1.40;;;;;;;2.21;100.00;100051.81;6094433;29;20163;-88
2023/03/11 14:03:00;;;;;;;2.88;1.27;;;;;;;2.24;100.00;100044.00;6084867;29;20183;-88
2023/03/11 14:06:05;;;;;;;4.00;1.30;;;;;;;2.30;100.00;100047.94;6101797;29;20059;-88
2023/03/11 14:09:18;;;;;;;5.18;1.40;;;;;;;2.28;100.00;100050.56;6093832;29;20052;-87
2023/03/11 14:12:20;;;;;;;2.92;1.38;;;;;;;2.26;100.00;100052.41;6097000;29;20040;-86
2023/03/11 14:15:25;;;;;;;3.90;1.25;;;;;;;2.31;100.00;100060.66;6066560;29;20463;-86
2023/03/11 14:18:27;;;;;;;2.63;1.10;;;;;;;2.40;100.00;100048.31;6094736;29;20468;-87
2023/03/11 14:21:30;;;;;;;1.98;0.95;;;;;;;2.48;100.00;100062.31;6088667;29;20507;-87
2023/03/11 14:24:32;;;;;;;4.80;1.30;;;;;;;2.52;100.00;100062.97;6093698;29;20127;-87
2023/03/11 14:27:37;;;;;;;5.68;1.40;;;;;;;2.43;100.00;100058.34;6093228;29;20056;-87